sensor_id;sensor_type;location;lat;lon;timestamp;temperature;humidity
73509;SHT30;61750;55.036;73.312;2022-12-10T00:00:12;-15.20;81.98
73509;SHT30;61750;55.036;73.312;2022-12-10T00:02:49;-15.20;81.97
73509;SHT30;61750;55.036;73.312;2022-12-10T00:05:15;-15.18;81.90
73509;SHT30;61750;55.036;73.312;2022-12-10T00:07:51;-15.20;81.74
73509;SHT30;61750;55.036;73.312;2022-12-10T00:10:27;-15.20;81.78
73509;SHT30;61750;55.036;73.312;2022-12-10T00:13:03;-15.21;81.80
73509;SHT30;61750;55.036;73.312;2022-12-10T00:15:35;-15.21;81.86
73509;SHT30;61750;55.036;73.312;2022-12-10T00:18:01;-15.24;81.90
73509;SHT30;61750;55.036;73.312;2022-12-10T00:20:26;-15.26;81.73
73509;SHT30;61750;55.036;73.312;2022-12-10T00:22:57;-15.28;81.62
73509;SHT30;61750;55.036;73.312;2022-12-10T00:25:29;-15.31;81.56
73509;SHT30;61750;55.036;73.312;2022-12-10T00:28:05;-15.30;81.55
73509;SHT30;61750;55.036;73.312;2022-12-10T00:30:42;-15.32;81.39
73509;SHT30;61750;55.036;73.312;2022-12-10T00:33:18;-15.38;81.54
73509;SHT30;61750;55.036;73.312;2022-12-10T00:35:49;-15.38;81.46
73509;SHT30;61750;55.036;73.312;2022-12-10T00:38:25;-15.38;81.55
73509;SHT30;61750;55.036;73.312;2022-12-10T00:41:02;-15.39;81.49
73509;SHT30;61750;55.036;73.312;2022-12-10T00:43:28;-15.42;81.57
73509;SHT30;61750;55.036;73.312;2022-12-10T00:45:54;-15.44;81.38
73509;SHT30;61750;55.036;73.312;2022-12-10T00:48:21;-15.42;81.49
73509;SHT30;61750;55.036;73.312;2022-12-10T00:53:29;-15.45;81.34
73509;SHT30;61750;55.036;73.312;2022-12-10T00:55:56;-15.42;81.56
73509;SHT30;61750;55.036;73.312;2022-12-10T00:58:22;-15.45;81.33
73509;SHT30;61750;55.036;73.312;2022-12-10T01:01:12;-15.44;81.32
73509;SHT30;61750;55.036;73.312;2022-12-10T01:03:49;-15.44;81.52
73509;SHT30;61750;55.036;73.312;2022-12-10T01:08:42;-15.35;81.63
73509;SHT30;61750;55.036;73.312;2022-12-10T01:11:08;-15.32;81.71
73509;SHT30;61750;55.036;73.312;2022-12-10T01:13:39;-15.28;81.64
73509;SHT30;61750;55.036;73.312;2022-12-10T01:16:17;-15.28;81.50
73509;SHT30;61750;55.036;73.312;2022-12-10T01:18:43;-15.21;81.54
73509;SHT30;61750;55.036;73.312;2022-12-10T01:21:10;-15.21;81.40
73509;SHT30;61750;55.036;73.312;2022-12-10T01:23:37;-15.20;81.14
73509;SHT30;61750;55.036;73.312;2022-12-10T01:26:11;-15.17;81.23
73509;SHT30;61750;55.036;73.312;2022-12-10T01:28:38;-15.17;81.10
73509;SHT30;61750;55.036;73.312;2022-12-10T01:31:07;-15.17;81.08
73509;SHT30;61750;55.036;73.312;2022-12-10T01:33:34;-15.18;81.07
73509;SHT30;61750;55.036;73.312;2022-12-10T01:36:12;-15.20;80.91
73509;SHT30;61750;55.036;73.312;2022-12-10T01:38:44;-15.21;80.85
73509;SHT30;61750;55.036;73.312;2022-12-10T01:41:15;-15.26;80.74
73509;SHT30;61750;55.036;73.312;2022-12-10T01:46:38;-15.20;81.07
73509;SHT30;61750;55.036;73.312;2022-12-10T01:49:11;-15.14;81.02
73509;SHT30;61750;55.036;73.312;2022-12-10T01:51:48;-15.10;81.13
73509;SHT30;61750;55.036;73.312;2022-12-10T01:54:41;-15.03;81.01
73509;SHT30;61750;55.036;73.312;2022-12-10T01:57:08;-14.99;80.83
73509;SHT30;61750;55.036;73.312;2022-12-10T01:59:50;-14.92;80.81
73509;SHT30;61750;55.036;73.312;2022-12-10T02:05:02;-14.77;80.63
73509;SHT30;61750;55.036;73.312;2022-12-10T02:12:48;-14.51;80.50
73509;SHT30;61750;55.036;73.312;2022-12-10T02:15:30;-14.49;80.10
73509;SHT30;61750;55.036;73.312;2022-12-10T02:18:00;-14.38;80.30
73509;SHT30;61750;55.036;73.312;2022-12-10T02:20:30;-14.28;80.06
73509;SHT30;61750;55.036;73.312;2022-12-10T02:22:59;-14.24;80.04
73509;SHT30;61750;55.036;73.312;2022-12-10T02:25:29;-14.16;80.02
73509;SHT30;61750;55.036;73.312;2022-12-10T02:28:01;-14.14;79.79
73509;SHT30;61750;55.036;73.312;2022-12-10T02:30:42;-14.10;79.52
73509;SHT30;61750;55.036;73.312;2022-12-10T02:33:08;-13.98;79.72
73509;SHT30;61750;55.036;73.312;2022-12-10T02:35:35;-13.98;79.50
73509;SHT30;61750;55.036;73.312;2022-12-10T02:38:09;-13.95;79.58
73509;SHT30;61750;55.036;73.312;2022-12-10T02:40:36;-13.95;79.45
73509;SHT30;61750;55.036;73.312;2022-12-10T02:43:11;-13.94;79.36
73509;SHT30;61750;55.036;73.312;2022-12-10T02:45:38;-13.87;79.42
73509;SHT30;61750;55.036;73.312;2022-12-10T02:48:06;-13.86;79.39
73509;SHT30;61750;55.036;73.312;2022-12-10T02:50:37;-13.90;78.76
73509;SHT30;61750;55.036;73.312;2022-12-10T02:53:08;-13.93;78.97
73509;SHT30;61750;55.036;73.312;2022-12-10T02:58:22;-14.01;79.06
73509;SHT30;61750;55.036;73.312;2022-12-10T03:03:52;-14.01;79.49
73509;SHT30;61750;55.036;73.312;2022-12-10T03:06:22;-14.03;79.51
73509;SHT30;61750;55.036;73.312;2022-12-10T03:08:52;-14.06;79.31
73509;SHT30;61750;55.036;73.312;2022-12-10T03:11:22;-14.13;79.00
73509;SHT30;61750;55.036;73.312;2022-12-10T03:16:17;-14.14;79.56
73509;SHT30;61750;55.036;73.312;2022-12-10T03:18:44;-14.11;79.86
73509;SHT30;61750;55.036;73.312;2022-12-10T03:21:12;-14.03;79.89
73509;SHT30;61750;55.036;73.312;2022-12-10T03:23:39;-13.98;79.64
73509;SHT30;61750;55.036;73.312;2022-12-10T03:26:16;-13.97;79.49
73509;SHT30;61750;55.036;73.312;2022-12-10T03:28:50;-13.98;79.21
73509;SHT30;61750;55.036;73.312;2022-12-10T03:31:26;-13.84;79.83
73509;SHT30;61750;55.036;73.312;2022-12-10T03:33:52;-13.87;79.10
73509;SHT30;61750;55.036;73.312;2022-12-10T03:36:20;-13.86;78.93
73509;SHT30;61750;55.036;73.312;2022-12-10T03:38:46;-13.95;78.69
73509;SHT30;61750;55.036;73.312;2022-12-10T03:41:12;-13.88;79.24
73509;SHT30;61750;55.036;73.312;2022-12-10T03:43:54;-13.83;79.33
73509;SHT30;61750;55.036;73.312;2022-12-10T03:46:30;-13.88;78.84
73509;SHT30;61750;55.036;73.312;2022-12-10T03:48:56;-13.93;78.66
73509;SHT30;61750;55.036;73.312;2022-12-10T03:51:23;-13.93;78.87
73509;SHT30;61750;55.036;73.312;2022-12-10T03:53:58;-13.98;78.78
73509;SHT30;61750;55.036;73.312;2022-12-10T03:56:24;-13.94;79.28
73509;SHT30;61750;55.036;73.312;2022-12-10T03:58:56;-13.86;79.55
73509;SHT30;61750;55.036;73.312;2022-12-10T04:01:25;-13.87;79.19
73509;SHT30;61750;55.036;73.312;2022-12-10T04:04:02;-13.84;79.21
73509;SHT30;61750;55.036;73.312;2022-12-10T04:06:28;-13.81;79.26
73509;SHT30;61750;55.036;73.312;2022-12-10T04:08:59;-13.81;79.12
73509;SHT30;61750;55.036;73.312;2022-12-10T04:11:34;-13.74;79.54
73509;SHT30;61750;55.036;73.312;2022-12-10T04:14:00;-13.73;79.15
73509;SHT30;61750;55.036;73.312;2022-12-10T04:16:47;-13.63;79.49
73509;SHT30;61750;55.036;73.312;2022-12-10T04:19:49;-13.69;79.00
73509;SHT30;61750;55.036;73.312;2022-12-10T04:22:15;-13.60;79.34
73509;SHT30;61750;55.036;73.312;2022-12-10T04:25:00;-13.53;79.26
73509;SHT30;61750;55.036;73.312;2022-12-10T04:27:52;-13.39;79.53
73509;SHT30;61750;55.036;73.312;2022-12-10T04:30:18;-13.33;79.20
73509;SHT30;61750;55.036;73.312;2022-12-10T04:32:44;-13.25;79.22
73509;SHT30;61750;55.036;73.312;2022-12-10T04:35:10;-13.12;79.07
73509;SHT30;61750;55.036;73.312;2022-12-10T04:37:36;-13.11;78.90
73509;SHT30;61750;55.036;73.312;2022-12-10T04:40:02;-13.05;78.95
73509;SHT30;61750;55.036;73.312;2022-12-10T04:42:29;-13.02;78.95
73509;SHT30;61750;55.036;73.312;2022-12-10T04:44:55;-12.97;78.95
73509;SHT30;61750;55.036;73.312;2022-12-10T04:47:25;-12.91;78.87
73509;SHT30;61750;55.036;73.312;2022-12-10T04:50:01;-12.91;78.45
73509;SHT30;61750;55.036;73.312;2022-12-10T04:52:27;-12.94;78.61
73509;SHT30;61750;55.036;73.312;2022-12-10T04:54:53;-12.88;78.91
73509;SHT30;61750;55.036;73.312;2022-12-10T04:57:19;-12.87;78.74
73509;SHT30;61750;55.036;73.312;2022-12-10T04:59:49;-12.84;78.79
73509;SHT30;61750;55.036;73.312;2022-12-10T05:02:15;-12.77;78.68
73509;SHT30;61750;55.036;73.312;2022-12-10T05:04:49;-12.75;78.66
73509;SHT30;61750;55.036;73.312;2022-12-10T05:07:15;-12.65;78.80
73509;SHT30;61750;55.036;73.312;2022-12-10T05:09:49;-12.60;78.66
73509;SHT30;61750;55.036;73.312;2022-12-10T05:12:15;-12.57;78.29
73509;SHT30;61750;55.036;73.312;2022-12-10T05:14:49;-12.44;78.41
73509;SHT30;61750;55.036;73.312;2022-12-10T05:17:15;-12.39;77.94
73509;SHT30;61750;55.036;73.312;2022-12-10T05:19:49;-12.44;77.81
73509;SHT30;61750;55.036;73.312;2022-12-10T05:22:15;-12.46;77.63
73509;SHT30;61750;55.036;73.312;2022-12-10T05:25:01;-12.44;77.60
73509;SHT30;61750;55.036;73.312;2022-12-10T05:27:30;-12.43;77.90
73509;SHT30;61750;55.036;73.312;2022-12-10T05:29:56;-12.44;77.84
73509;SHT30;61750;55.036;73.312;2022-12-10T05:32:22;-12.28;78.37
73509;SHT30;61750;55.036;73.312;2022-12-10T05:34:49;-12.16;77.89
73509;SHT30;61750;55.036;73.312;2022-12-10T05:37:15;-12.18;77.20
73509;SHT30;61750;55.036;73.312;2022-12-10T05:39:49;-12.05;77.53
73509;SHT30;61750;55.036;73.312;2022-12-10T05:42:25;-12.06;76.93
73509;SHT30;61750;55.036;73.312;2022-12-10T05:44:51;-12.02;77.07
73509;SHT30;61750;55.036;73.312;2022-12-10T05:47:17;-12.03;77.29
73509;SHT30;61750;55.036;73.312;2022-12-10T05:49:49;-11.92;77.38
73509;SHT30;61750;55.036;73.312;2022-12-10T05:52:15;-11.82;76.93
73509;SHT30;61750;55.036;73.312;2022-12-10T05:54:41;-11.75;76.59
73509;SHT30;61750;55.036;73.312;2022-12-10T05:57:07;-11.75;76.40
73509;SHT30;61750;55.036;73.312;2022-12-10T05:59:49;-11.72;76.61
73509;SHT30;61750;55.036;73.312;2022-12-10T06:02:20;-11.61;76.76
73509;SHT30;61750;55.036;73.312;2022-12-10T06:04:49;-11.58;76.45
73509;SHT30;61750;55.036;73.312;2022-12-10T06:07:15;-11.48;76.44
73509;SHT30;61750;55.036;73.312;2022-12-10T06:09:49;-11.38;76.26
73509;SHT30;61750;55.036;73.312;2022-12-10T06:12:25;-11.19;76.17
73509;SHT30;61750;55.036;73.312;2022-12-10T06:14:51;-11.20;75.75
73509;SHT30;61750;55.036;73.312;2022-12-10T06:17:17;-11.01;76.11
73509;SHT30;61750;55.036;73.312;2022-12-10T06:19:49;-10.97;75.69
73509;SHT30;61750;55.036;73.312;2022-12-10T06:22:15;-10.90;75.67
73509;SHT30;61750;55.036;73.312;2022-12-10T06:24:45;-10.84;75.37
73509;SHT30;61750;55.036;73.312;2022-12-10T06:27:11;-10.76;75.46
73509;SHT30;61750;55.036;73.312;2022-12-10T06:29:49;-10.79;75.04
73509;SHT30;61750;55.036;73.312;2022-12-10T06:32:15;-10.75;75.39
73509;SHT30;61750;55.036;73.312;2022-12-10T06:34:49;-10.62;75.25
73509;SHT30;61750;55.036;73.312;2022-12-10T06:37:25;-10.58;75.01
73509;SHT30;61750;55.036;73.312;2022-12-10T06:40:07;-10.45;75.21
73509;SHT30;61750;55.036;73.312;2022-12-10T06:42:35;-10.38;75.01
73509;SHT30;61750;55.036;73.312;2022-12-10T06:45:01;-10.32;74.82
73509;SHT30;61750;55.036;73.312;2022-12-10T06:47:37;-10.34;75.08
73509;SHT30;61750;55.036;73.312;2022-12-10T06:50:09;-10.26;74.97
73509;SHT30;61750;55.036;73.312;2022-12-10T06:52:44;-10.21;75.17
73509;SHT30;61750;55.036;73.312;2022-12-10T06:55:10;-10.20;75.21
73509;SHT30;61750;55.036;73.312;2022-12-10T06:57:37;-10.13;75.14
73509;SHT30;61750;55.036;73.312;2022-12-10T07:00:04;-10.17;74.87
73509;SHT30;61750;55.036;73.312;2022-12-10T07:02:30;-10.13;75.41
73509;SHT30;61750;55.036;73.312;2022-12-10T07:04:56;-10.10;75.78
73509;SHT30;61750;55.036;73.312;2022-12-10T07:07:22;-10.01;75.70
73509;SHT30;61750;55.036;73.312;2022-12-10T07:09:53;-10.01;75.43
73509;SHT30;61750;55.036;73.312;2022-12-10T07:12:19;-9.89;75.84
73509;SHT30;61750;55.036;73.312;2022-12-10T07:14:49;-9.74;75.37
73509;SHT30;61750;55.036;73.312;2022-12-10T07:17:21;-9.75;75.46
73509;SHT30;61750;55.036;73.312;2022-12-10T07:19:49;-9.64;75.48
73509;SHT30;61750;55.036;73.312;2022-12-10T07:22:15;-9.67;75.16
73509;SHT30;61750;55.036;73.312;2022-12-10T07:24:41;-9.66;75.23
73509;SHT30;61750;55.036;73.312;2022-12-10T07:27:07;-9.60;75.08
73509;SHT30;61750;55.036;73.312;2022-12-10T07:29:49;-9.50;75.14
73509;SHT30;61750;55.036;73.312;2022-12-10T07:32:15;-9.44;74.90
73509;SHT30;61750;55.036;73.312;2022-12-10T07:34:49;-9.50;74.77
73509;SHT30;61750;55.036;73.312;2022-12-10T07:37:25;-9.43;75.10
73509;SHT30;61750;55.036;73.312;2022-12-10T07:39:52;-9.49;74.73
73509;SHT30;61750;55.036;73.312;2022-12-10T07:42:18;-9.39;74.72
73509;SHT30;61750;55.036;73.312;2022-12-10T07:44:49;-9.29;74.79
73509;SHT30;61750;55.036;73.312;2022-12-10T07:47:15;-9.28;74.57
73509;SHT30;61750;55.036;73.312;2022-12-10T07:49:49;-9.29;74.36
73509;SHT30;61750;55.036;73.312;2022-12-10T07:52:20;-9.32;74.48
73509;SHT30;61750;55.036;73.312;2022-12-10T07:54:46;-9.32;74.64
73509;SHT30;61750;55.036;73.312;2022-12-10T07:57:12;-9.26;74.76
73509;SHT30;61750;55.036;73.312;2022-12-10T07:59:49;-9.32;74.71
73509;SHT30;61750;55.036;73.312;2022-12-10T08:02:20;-9.30;74.41
73509;SHT30;61750;55.036;73.312;2022-12-10T08:04:49;-9.36;74.92
73509;SHT30;61750;55.036;73.312;2022-12-10T08:07:15;-9.28;75.38
73509;SHT30;61750;55.036;73.312;2022-12-10T08:09:49;-9.25;75.12
73509;SHT30;61750;55.036;73.312;2022-12-10T08:12:15;-9.20;74.95
73509;SHT30;61750;55.036;73.312;2022-12-10T08:14:49;-9.14;74.68
73509;SHT30;61750;55.036;73.312;2022-12-10T08:17:26;-9.09;74.78
73509;SHT30;61750;55.036;73.312;2022-12-10T08:19:56;-9.15;74.61
73509;SHT30;61750;55.036;73.312;2022-12-10T08:22:23;-9.22;74.51
73509;SHT30;61750;55.036;73.312;2022-12-10T08:24:49;-9.14;75.01
73509;SHT30;61750;55.036;73.312;2022-12-10T08:27:19;-9.06;74.60
73509;SHT30;61750;55.036;73.312;2022-12-10T08:29:49;-9.14;74.83
73509;SHT30;61750;55.036;73.312;2022-12-10T08:32:15;-9.11;74.76
73509;SHT30;61750;55.036;73.312;2022-12-10T08:34:51;-9.06;74.72
73509;SHT30;61750;55.036;73.312;2022-12-10T08:37:17;-9.12;74.69
73509;SHT30;61750;55.036;73.312;2022-12-10T08:39:49;-9.06;74.89
73509;SHT30;61750;55.036;73.312;2022-12-10T08:42:21;-8.99;74.74
73509;SHT30;61750;55.036;73.312;2022-12-10T08:44:56;-8.98;74.61
73509;SHT30;61750;55.036;73.312;2022-12-10T08:47:22;-8.91;74.74
73509;SHT30;61750;55.036;73.312;2022-12-10T08:49:59;-8.80;74.39
73509;SHT30;61750;55.036;73.312;2022-12-10T08:52:26;-8.85;74.36
73509;SHT30;61750;55.036;73.312;2022-12-10T08:55:04;-8.81;74.53
73509;SHT30;61750;55.036;73.312;2022-12-10T08:57:31;-8.87;74.26
73509;SHT30;61750;55.036;73.312;2022-12-10T09:00:06;-8.98;74.64
73509;SHT30;61750;55.036;73.312;2022-12-10T09:02:32;-8.95;74.95
73509;SHT30;61750;55.036;73.312;2022-12-10T09:05:00;-8.98;74.61
73509;SHT30;61750;55.036;73.312;2022-12-10T09:07:27;-9.09;74.92
73509;SHT30;61750;55.036;73.312;2022-12-10T09:09:53;-9.12;75.46
73509;SHT30;61750;55.036;73.312;2022-12-10T09:12:28;-9.15;75.40
73509;SHT30;61750;55.036;73.312;2022-12-10T09:14:54;-9.18;75.43
73509;SHT30;61750;55.036;73.312;2022-12-10T09:17:21;-9.20;75.72
73509;SHT30;61750;55.036;73.312;2022-12-10T09:19:56;-9.22;75.83
73509;SHT30;61750;55.036;73.312;2022-12-10T09:22:26;-9.20;75.97
73509;SHT30;61750;55.036;73.312;2022-12-10T09:24:52;-9.18;76.01
73509;SHT30;61750;55.036;73.312;2022-12-10T09:27:18;-9.16;76.06
73509;SHT30;61750;55.036;73.312;2022-12-10T09:29:49;-9.08;75.76
73509;SHT30;61750;55.036;73.312;2022-12-10T09:32:15;-8.89;76.12
73509;SHT30;61750;55.036;73.312;2022-12-10T09:34:52;-8.85;75.24
73509;SHT30;61750;55.036;73.312;2022-12-10T09:37:18;-8.80;75.05
73509;SHT30;61750;55.036;73.312;2022-12-10T09:39:49;-8.69;75.07
73509;SHT30;61750;55.036;73.312;2022-12-10T09:45:39;-8.87;74.96
73509;SHT30;61750;55.036;73.312;2022-12-10T09:50:28;-9.05;75.79
73509;SHT30;61750;55.036;73.312;2022-12-10T09:52:56;-9.11;76.10
73509;SHT30;61750;55.036;73.312;2022-12-10T09:55:45;-9.15;76.25
73509;SHT30;61750;55.036;73.312;2022-12-10T09:58:13;-9.18;76.57
73509;SHT30;61750;55.036;73.312;2022-12-10T10:00:42;-9.16;76.87
73509;SHT30;61750;55.036;73.312;2022-12-10T10:03:13;-9.14;77.16
73509;SHT30;61750;55.036;73.312;2022-12-10T10:05:50;-9.20;77.07
73509;SHT30;61750;55.036;73.312;2022-12-10T10:08:51;-9.25;77.30
73509;SHT30;61750;55.036;73.312;2022-12-10T10:11:11;-9.32;77.17
73509;SHT30;61750;55.036;73.312;2022-12-10T10:13:42;-9.32;77.42
73509;SHT30;61750;55.036;73.312;2022-12-10T10:18:37;-9.40;77.19
73509;SHT30;61750;55.036;73.312;2022-12-10T10:21:04;-9.40;77.35
73509;SHT30;61750;55.036;73.312;2022-12-10T10:23:33;-9.42;77.36
73509;SHT30;61750;55.036;73.312;2022-12-10T10:25:59;-9.44;77.34
73509;SHT30;61750;55.036;73.312;2022-12-10T10:28:35;-9.50;77.16
73509;SHT30;61750;55.036;73.312;2022-12-10T10:31:07;-9.50;77.41
73509;SHT30;61750;55.036;73.312;2022-12-10T10:33:47;-9.54;77.36
73509;SHT30;61750;55.036;73.312;2022-12-10T10:36:14;-9.61;77.42
73509;SHT30;61750;55.036;73.312;2022-12-10T10:38:43;-9.61;77.86
73509;SHT30;61750;55.036;73.312;2022-12-10T10:41:12;-9.60;77.92
73509;SHT30;61750;55.036;73.312;2022-12-10T10:43:40;-9.60;77.88
73509;SHT30;61750;55.036;73.312;2022-12-10T10:46:22;-9.56;77.90
73509;SHT30;61750;55.036;73.312;2022-12-10T10:48:49;-9.56;77.87
73509;SHT30;61750;55.036;73.312;2022-12-10T10:51:18;-9.61;77.78
73509;SHT30;61750;55.036;73.312;2022-12-10T10:53:47;-9.63;77.76
73509;SHT30;61750;55.036;73.312;2022-12-10T10:56:18;-9.63;78.06
73509;SHT30;61750;55.036;73.312;2022-12-10T11:01:15;-9.71;78.27
73509;SHT30;61750;55.036;73.312;2022-12-10T11:03:48;-9.74;78.19
73509;SHT30;61750;55.036;73.312;2022-12-10T11:06:15;-9.78;78.14
73509;SHT30;61750;55.036;73.312;2022-12-10T11:08:41;-9.84;78.25
73509;SHT30;61750;55.036;73.312;2022-12-10T11:11:17;-9.90;78.48
73509;SHT30;61750;55.036;73.312;2022-12-10T11:13:44;-9.90;78.70
73509;SHT30;61750;55.036;73.312;2022-12-10T11:18:57;-9.98;78.85
73509;SHT30;61750;55.036;73.312;2022-12-10T11:21:28;-10.01;78.80
73509;SHT30;61750;55.036;73.312;2022-12-10T11:23:54;-10.05;78.87
73509;SHT30;61750;55.036;73.312;2022-12-10T11:42:26;-10.14;78.22
73509;SHT30;61750;55.036;73.312;2022-12-10T11:45:17;-10.15;78.25
73509;SHT30;61750;55.036;73.312;2022-12-10T11:47:53;-10.15;78.54
73509;SHT30;61750;55.036;73.312;2022-12-10T11:50:37;-10.18;78.47
73509;SHT30;61750;55.036;73.312;2022-12-10T11:58:26;-10.18;78.72
73509;SHT30;61750;55.036;73.312;2022-12-10T12:01:09;-10.22;78.70
73509;SHT30;61750;55.036;73.312;2022-12-10T12:03:54;-10.21;78.79
73509;SHT30;61750;55.036;73.312;2022-12-10T12:06:28;-10.21;78.87
73509;SHT30;61750;55.036;73.312;2022-12-10T12:14:57;-10.28;78.75
73509;SHT30;61750;55.036;73.312;2022-12-10T12:17:38;-10.31;78.67
73509;SHT30;61750;55.036;73.312;2022-12-10T12:22:35;-10.34;78.84
73509;SHT30;61750;55.036;73.312;2022-12-10T12:25:23;-10.32;79.03
73509;SHT30;61750;55.036;73.312;2022-12-10T12:30:24;-10.34;78.84
73509;SHT30;61750;55.036;73.312;2022-12-10T12:35:43;-10.32;79.12
73509;SHT30;61750;55.036;73.312;2022-12-10T12:41:05;-10.36;79.38
73509;SHT30;61750;55.036;73.312;2022-12-10T12:46:02;-10.28;79.69
73509;SHT30;61750;55.036;73.312;2022-12-10T12:53:30;-10.15;80.03
73509;SHT30;61750;55.036;73.312;2022-12-10T13:03:40;-9.87;80.12
73509;SHT30;61750;55.036;73.312;2022-12-10T13:06:18;-9.89;79.96
73509;SHT30;61750;55.036;73.312;2022-12-10T13:11:35;-9.93;80.37
73509;SHT30;61750;55.036;73.312;2022-12-10T13:16:58;-9.97;80.59
73509;SHT30;61750;55.036;73.312;2022-12-10T13:19:49;-10.00;80.55
73509;SHT30;61750;55.036;73.312;2022-12-10T13:25:24;-10.01;80.47
73509;SHT30;61750;55.036;73.312;2022-12-10T13:28:16;-10.05;80.44
73509;SHT30;61750;55.036;73.312;2022-12-10T13:30:42;-10.14;80.08
73509;SHT30;61750;55.036;73.312;2022-12-10T13:33:18;-10.15;79.96
73509;SHT30;61750;55.036;73.312;2022-12-10T13:38:41;-10.25;79.53
73509;SHT30;61750;55.036;73.312;2022-12-10T13:41:07;-10.26;79.61
73509;SHT30;61750;55.036;73.312;2022-12-10T13:45:35;-10.20;79.67
73509;SHT30;61750;55.036;73.312;2022-12-10T13:55:46;-10.15;79.67
73509;SHT30;61750;55.036;73.312;2022-12-10T14:03:48;-10.14;79.70
73509;SHT30;61750;55.036;73.312;2022-12-10T14:06:20;-10.13;79.62
73509;SHT30;61750;55.036;73.312;2022-12-10T14:09:13;-10.11;79.53
73509;SHT30;61750;55.036;73.312;2022-12-10T14:11:45;-10.20;79.08
73509;SHT30;61750;55.036;73.312;2022-12-10T14:14:58;-10.21;79.10
73509;SHT30;61750;55.036;73.312;2022-12-10T14:17:31;-10.26;79.04
73509;SHT30;61750;55.036;73.312;2022-12-10T14:20:08;-10.29;78.84
73509;SHT30;61750;55.036;73.312;2022-12-10T14:22:38;-10.38;78.60
73509;SHT30;61750;55.036;73.312;2022-12-10T14:25:05;-10.45;78.91
73509;SHT30;61750;55.036;73.312;2022-12-10T14:27:33;-10.48;79.29
73509;SHT30;61750;55.036;73.312;2022-12-10T14:30:14;-10.56;79.41
73509;SHT30;61750;55.036;73.312;2022-12-10T14:32:40;-10.62;79.82
73509;SHT30;61750;55.036;73.312;2022-12-10T14:35:07;-10.66;80.10
73509;SHT30;61750;55.036;73.312;2022-12-10T14:37:43;-10.73;80.19
73509;SHT30;61750;55.036;73.312;2022-12-10T14:40:23;-10.86;80.33
73509;SHT30;61750;55.036;73.312;2022-12-10T14:43:14;-10.91;80.71
73509;SHT30;61750;55.036;73.312;2022-12-10T14:45:51;-10.97;80.87
73509;SHT30;61750;55.036;73.312;2022-12-10T14:48:17;-11.01;81.28
73509;SHT30;61750;55.036;73.312;2022-12-10T14:50:48;-11.03;81.61
73509;SHT30;61750;55.036;73.312;2022-12-10T14:53:19;-11.01;81.75
73509;SHT30;61750;55.036;73.312;2022-12-10T14:55:45;-10.99;81.69
73509;SHT30;61750;55.036;73.312;2022-12-10T14:58:26;-10.95;81.37
73509;SHT30;61750;55.036;73.312;2022-12-10T15:00:53;-10.95;80.97
73509;SHT30;61750;55.036;73.312;2022-12-10T15:03:27;-10.91;80.38
73509;SHT30;61750;55.036;73.312;2022-12-10T15:05:54;-10.86;79.64
73509;SHT30;61750;55.036;73.312;2022-12-10T15:08:20;-10.83;79.15
73509;SHT30;61750;55.036;73.312;2022-12-10T15:10:53;-10.86;79.25
73509;SHT30;61750;55.036;73.312;2022-12-10T15:13:21;-10.84;79.35
73509;SHT30;61750;55.036;73.312;2022-12-10T15:15:48;-10.86;79.33
73509;SHT30;61750;55.036;73.312;2022-12-10T15:18:30;-10.86;79.31
73509;SHT30;61750;55.036;73.312;2022-12-10T15:21:05;-10.89;79.11
73509;SHT30;61750;55.036;73.312;2022-12-10T15:23:32;-10.86;79.04
73509;SHT30;61750;55.036;73.312;2022-12-10T15:28:37;-10.96;78.81
73509;SHT30;61750;55.036;73.312;2022-12-10T15:31:11;-11.01;78.88
73509;SHT30;61750;55.036;73.312;2022-12-10T15:33:49;-11.04;78.94
73509;SHT30;61750;55.036;73.312;2022-12-10T15:38:50;-11.13;79.07
73509;SHT30;61750;55.036;73.312;2022-12-10T15:44:00;-11.20;79.08
73509;SHT30;61750;55.036;73.312;2022-12-10T15:46:46;-11.24;79.10
73509;SHT30;61750;55.036;73.312;2022-12-10T15:49:49;-11.30;78.79
73509;SHT30;61750;55.036;73.312;2022-12-10T15:52:18;-11.37;78.59
73509;SHT30;61750;55.036;73.312;2022-12-10T15:54:45;-11.45;78.60
73509;SHT30;61750;55.036;73.312;2022-12-10T15:57:19;-11.55;78.39
73509;SHT30;61750;55.036;73.312;2022-12-10T15:59:51;-11.59;78.49
73509;SHT30;61750;55.036;73.312;2022-12-10T16:04:50;-11.81;78.29
73509;SHT30;61750;55.036;73.312;2022-12-10T16:07:17;-11.88;78.59
73509;SHT30;61750;55.036;73.312;2022-12-10T16:09:49;-11.95;78.66
73509;SHT30;61750;55.036;73.312;2022-12-10T16:12:15;-12.06;78.41
73509;SHT30;61750;55.036;73.312;2022-12-10T16:14:53;-12.16;78.54
73509;SHT30;61750;55.036;73.312;2022-12-10T16:17:21;-12.29;78.74
73509;SHT30;61750;55.036;73.312;2022-12-10T16:19:49;-12.36;79.13
73509;SHT30;61750;55.036;73.312;2022-12-10T16:22:16;-12.46;79.42
73509;SHT30;61750;55.036;73.312;2022-12-10T16:24:42;-12.54;79.76
73509;SHT30;61750;55.036;73.312;2022-12-10T16:27:17;-12.67;79.90
73509;SHT30;61750;55.036;73.312;2022-12-10T16:29:49;-12.68;80.36
73509;SHT30;61750;55.036;73.312;2022-12-10T16:32:15;-12.73;80.73
73509;SHT30;61750;55.036;73.312;2022-12-10T16:34:49;-12.74;80.99
73509;SHT30;61750;55.036;73.312;2022-12-10T16:37:25;-12.83;80.91
73509;SHT30;61750;55.036;73.312;2022-12-10T16:39:51;-12.83;81.25
73509;SHT30;61750;55.036;73.312;2022-12-10T16:42:27;-12.87;81.28
73509;SHT30;61750;55.036;73.312;2022-12-10T16:45:09;-12.88;81.39
73509;SHT30;61750;55.036;73.312;2022-12-10T16:47:37;-12.97;81.29
73509;SHT30;61750;55.036;73.312;2022-12-10T16:50:07;-12.95;81.68
73509;SHT30;61750;55.036;73.312;2022-12-10T16:52:40;-12.91;81.89
73509;SHT30;61750;55.036;73.312;2022-12-10T16:55:07;-13.01;81.47
73509;SHT30;61750;55.036;73.312;2022-12-10T16:57:41;-12.97;81.69
73509;SHT30;61750;55.036;73.312;2022-12-10T17:00:10;-12.99;81.57
73509;SHT30;61750;55.036;73.312;2022-12-10T17:02:36;-13.01;81.58
73509;SHT30;61750;55.036;73.312;2022-12-10T17:05:16;-13.01;81.67
73509;SHT30;61750;55.036;73.312;2022-12-10T17:07:52;-13.04;81.49
73509;SHT30;61750;55.036;73.312;2022-12-10T17:10:27;-13.01;81.64
73509;SHT30;61750;55.036;73.312;2022-12-10T17:13:12;-12.97;81.82
73509;SHT30;61750;55.036;73.312;2022-12-10T17:15:48;-12.89;81.97
73509;SHT30;61750;55.036;73.312;2022-12-10T17:18:15;-12.83;81.93
73509;SHT30;61750;55.036;73.312;2022-12-10T17:20:51;-12.80;81.76
73509;SHT30;61750;55.036;73.312;2022-12-10T17:23:18;-12.77;81.56
73509;SHT30;61750;55.036;73.312;2022-12-10T17:25:44;-12.74;81.48
73509;SHT30;61750;55.036;73.312;2022-12-10T17:28:13;-12.75;81.38
73509;SHT30;61750;55.036;73.312;2022-12-10T17:30:40;-12.75;81.32
73509;SHT30;61750;55.036;73.312;2022-12-10T17:33:06;-12.80;81.04
73509;SHT30;61750;55.036;73.312;2022-12-10T17:35:43;-12.85;80.83
73509;SHT30;61750;55.036;73.312;2022-12-10T17:38:22;-12.85;80.90